createdAt,value
2018-04-14T12:53:53.844Z,97.91
2018-04-14T12:54:53.734Z,98.53
2018-04-14T12:56:46.583Z,96.22
2018-04-14T12:57:46.507Z,96.80
2018-04-14T12:59:39.335Z,95.55
2018-04-14T13:00:39.167Z,96.66
2018-04-14T13:02:32.424Z,99.99
2018-04-14T13:03:32.335Z,99.99
2018-04-14T13:05:25.161Z,99.99
2018-04-14T13:06:25.623Z,99.99
2018-04-14T13:08:17.909Z,99.99
2018-04-14T13:09:17.793Z,99.99
2018-04-14T13:11:10.665Z,99.99
2018-04-14T13:12:10.535Z,99.99
2018-04-14T13:14:03.418Z,99.99
2018-04-14T13:15:03.289Z,99.99
2018-04-14T13:16:56.167Z,99.99
2018-04-14T13:17:56.064Z,99.99
2018-04-14T13:19:48.929Z,99.99
2018-04-14T13:20:48.840Z,99.99
2018-04-14T13:22:41.653Z,99.99
2018-04-14T13:23:41.631Z,99.99
2018-04-14T13:25:34.409Z,99.99
2018-04-14T13:26:34.281Z,99.99
2018-04-14T13:28:27.129Z,99.99
2018-04-14T13:29:27.044Z,99.99
2018-04-14T13:31:19.926Z,99.99
2018-04-14T13:32:19.823Z,99.99
2018-04-14T13:34:12.681Z,99.99
2018-04-14T13:35:12.531Z,99.99
2018-04-14T13:37:05.833Z,99.99
2018-04-14T13:38:05.720Z,99.99
2018-04-14T13:39:58.678Z,99.99
2018-04-14T13:40:58.566Z,99.99
2018-04-14T13:42:51.491Z,99.99
2018-04-14T13:43:51.402Z,99.99
2018-04-14T13:45:44.296Z,99.99
2018-04-14T13:46:44.167Z,99.99
2018-04-14T13:48:36.996Z,99.99
2018-04-14T13:49:36.896Z,99.99
2018-04-14T13:51:29.749Z,96.94
2018-04-14T13:52:29.644Z,99.58
2018-04-14T13:54:22.610Z,99.99
2018-04-14T13:55:22.543Z,99.99
2018-04-14T13:57:15.472Z,99.99
2018-04-14T13:58:15.383Z,99.99
2018-04-14T14:00:08.226Z,99.99
2018-04-14T14:01:08.105Z,99.99
2018-04-14T14:03:00.992Z,97.81
2018-04-14T14:04:00.861Z,98.82
2018-04-14T14:05:54.394Z,98.82
2018-04-14T14:06:53.614Z,97.38
2018-04-14T14:08:46.631Z,96.66
2018-04-14T14:09:46.951Z,98.49
2018-04-14T14:11:39.224Z,93.87
2018-04-14T14:12:39.100Z,96.27
2018-04-14T14:14:31.974Z,92.23
2018-04-14T14:15:31.895Z,91.99
2018-04-14T14:17:24.693Z,92.52
2018-04-14T14:18:24.619Z,92.86
2018-04-14T14:20:18.526Z,93.48
2018-04-14T14:21:17.517Z,94.54
2018-04-14T14:23:10.601Z,92.23
2018-04-14T14:24:10.538Z,91.94
2018-04-14T14:26:03.382Z,93.48
2018-04-14T14:27:03.268Z,94.35
2018-04-14T14:28:56.133Z,91.17
2018-04-14T14:29:56.012Z,92.28
2018-04-14T14:31:50.038Z,93.91
2018-04-14T14:32:49.444Z,92.08
2018-04-14T14:34:41.617Z,93.05
2018-04-14T14:35:41.528Z,93.24
2018-04-14T14:37:34.365Z,89.58
2018-04-14T14:38:34.262Z,88.04
2018-04-14T14:40:27.366Z,89.68
2018-04-14T14:41:27.243Z,89.44
2018-04-14T14:43:20.871Z,93.00
2018-04-14T14:44:21.331Z,93.19
2018-04-14T14:46:12.947Z,93.10
2018-04-14T14:47:12.833Z,90.73
2018-04-14T14:49:05.667Z,88.67
2018-04-14T14:50:05.571Z,91.27
2018-04-14T14:51:58.619Z,91.13
2018-04-14T14:52:58.521Z,90.06
2018-04-14T14:54:51.515Z,90.30
2018-04-14T14:55:51.426Z,91.03
2018-04-14T14:57:44.130Z,91.17
2018-04-14T14:58:44.014Z,94.06
2018-04-14T15:00:36.851Z,94.73
2018-04-14T15:01:36.803Z,94.54
2018-04-14T15:03:31.167Z,94.25
2018-04-14T15:04:31.130Z,94.15
2018-04-14T15:06:25.305Z,94.15
2018-04-14T15:07:24.343Z,92.81
2018-04-14T15:09:16.674Z,92.42
2018-04-14T15:10:16.579Z,88.71
2018-04-14T15:12:09.430Z,88.95
2018-04-14T15:13:09.308Z,91.03
2018-04-14T15:15:02.999Z,92.38
2018-04-14T15:16:02.885Z,91.55
2018-04-14T15:17:56.319Z,89.82
2018-04-14T15:18:56.258Z,86.26
2018-04-14T15:20:49.769Z,86.21
2018-04-14T15:21:49.673Z,86.65
2018-04-14T15:23:42.372Z,91.84
2018-04-14T15:24:42.237Z,89.68
2018-04-14T15:26:35.105Z,93.38
2018-04-14T15:27:34.995Z,94.45
2018-04-14T15:29:28.278Z,97.14
2018-04-14T15:30:28.159Z,97.47
2018-04-14T15:32:21.515Z,98.34
2018-04-14T15:33:21.485Z,96.70
2018-04-14T15:35:14.283Z,93.72
2018-04-14T15:36:14.168Z,91.75
2018-04-14T15:38:07.037Z,86.92
2018-04-14T15:39:06.911Z,84.61
2018-04-14T15:40:59.781Z,83.36
2018-04-14T15:41:59.659Z,82.72
2018-04-14T15:43:52.944Z,81.91
2018-04-14T15:44:52.514Z,83.80
2018-04-14T15:46:45.409Z,91.41
2018-04-14T15:47:45.264Z,93.96
2018-04-14T15:49:38.129Z,96.27
2018-04-14T15:50:38.007Z,98.05
2018-04-14T15:52:30.892Z,99.88
2018-04-14T15:53:30.763Z,99.99
2018-04-14T15:55:23.602Z,99.99
2018-04-14T15:56:23.522Z,99.99
2018-04-14T15:58:16.353Z,99.99
2018-04-14T15:59:16.278Z,96.51
2018-04-14T16:01:09.113Z,97.09
2018-04-14T16:02:09.012Z,96.70
2018-04-14T16:04:09.657Z,98.00
2018-04-14T16:05:01.758Z,99.16
2018-04-14T16:06:54.640Z,98.14
2018-04-14T16:07:54.514Z,99.21
2018-04-14T16:09:47.359Z,99.78
2018-04-14T16:10:47.277Z,99.99
2018-04-14T16:12:40.517Z,99.99
2018-04-14T16:13:40.443Z,99.99
2018-04-14T16:15:33.271Z,99.99
2018-04-14T16:16:33.181Z,99.99
2018-04-14T16:18:26.007Z,99.99
2018-04-14T16:19:25.927Z,99.99
2018-04-14T16:21:18.786Z,99.99
2018-04-14T16:22:18.669Z,99.99
2018-04-14T16:24:11.510Z,99.99
2018-04-14T16:25:11.425Z,99.99
2018-04-14T16:27:04.268Z,99.99
2018-04-14T16:28:04.190Z,99.99
2018-04-14T16:29:57.010Z,99.99
2018-04-14T16:30:56.941Z,99.99
2018-04-14T16:32:49.770Z,99.99
2018-04-14T16:33:49.672Z,99.99
2018-04-14T16:35:42.507Z,99.99
2018-04-14T16:36:42.411Z,99.99
2018-04-14T16:38:35.284Z,99.99
2018-04-14T16:39:35.170Z,99.99
2018-04-14T16:41:28.008Z,99.99
2018-04-14T16:42:27.937Z,99.99
2018-04-14T16:44:21.972Z,99.99
2018-04-14T16:45:20.657Z,99.99
2018-04-14T16:47:13.524Z,99.99
2018-04-14T16:48:13.416Z,99.99
2018-04-14T16:50:06.748Z,99.99
2018-04-14T16:51:06.583Z,99.99
2018-04-14T16:52:59.466Z,99.99
2018-04-14T16:53:59.329Z,99.99
2018-04-14T16:55:52.698Z,99.99
2018-04-14T16:56:52.302Z,99.99
2018-04-14T16:58:44.929Z,99.99
2018-04-14T16:59:44.828Z,99.73
2018-04-14T17:01:37.662Z,99.99
2018-04-14T17:02:37.593Z,99.39
2018-04-14T17:04:30.439Z,99.01
2018-04-14T17:05:30.317Z,99.96
2018-04-14T17:07:23.177Z,99.73
2018-04-14T17:08:23.081Z,98.77
2018-04-14T17:10:15.949Z,99.15
2018-04-14T17:11:15.822Z,96.75
2018-04-14T17:13:08.664Z,97.38
2018-04-14T17:14:08.563Z,95.84
2018-04-14T17:16:02.332Z,96.03
2018-04-14T17:17:01.320Z,96.32
2018-04-14T17:18:54.240Z,96.32
2018-04-14T17:19:54.106Z,94.89
2018-04-14T17:21:46.924Z,95.84
2018-04-14T17:22:46.810Z,95.84
2018-04-14T17:24:39.685Z,95.65
2018-04-14T17:25:39.561Z,95.84
2018-04-14T17:27:32.410Z,94.89
2018-04-14T17:28:32.338Z,96.27
2018-04-14T17:30:25.154Z,95.36
2018-04-14T17:31:25.061Z,95.22
2018-04-14T17:33:17.952Z,95.22
2018-04-14T17:34:17.821Z,91.29
2018-04-14T17:36:10.687Z,88.23
2018-04-14T17:37:10.555Z,86.79
2018-04-14T17:39:03.411Z,86.41
2018-04-14T17:40:03.311Z,85.93
2018-04-14T17:41:56.159Z,85.16
2018-04-14T17:42:56.287Z,85.35
2018-04-14T17:44:48.970Z,83.78
2018-04-14T17:45:48.819Z,83.15
2018-04-14T17:47:41.676Z,82.53
2018-04-14T17:48:41.616Z,83.20
2018-04-14T17:50:34.427Z,81.86
2018-04-14T17:51:34.304Z,80.62
2018-04-14T17:53:27.158Z,79.37
2018-04-14T17:54:27.062Z,78.89
2018-04-14T17:56:19.965Z,78.80
2018-04-14T17:57:19.824Z,77.17
2018-04-14T17:59:12.688Z,77.65
2018-04-14T18:00:12.570Z,76.89
2018-04-14T18:02:05.322Z,75.31
2018-04-14T18:03:05.210Z,75.02
2018-04-14T18:04:58.468Z,73.88
2018-04-14T18:05:58.363Z,72.34
2018-04-14T18:07:51.234Z,70.91
2018-04-14T18:08:51.111Z,70.59
2018-04-14T18:10:43.957Z,70.21
2018-04-14T18:11:43.867Z,68.96
2018-04-14T18:13:36.716Z,67.14
2018-04-14T18:14:36.629Z,67.63
2018-04-14T18:16:29.975Z,66.38
2018-04-14T18:17:29.775Z,66.47
2018-04-14T18:19:24.075Z,66.19
2018-04-14T18:20:23.981Z,65.81
2018-04-14T18:22:17.725Z,64.09
2018-04-14T18:23:17.641Z,64.91
2018-04-14T18:25:10.482Z,63.48
2018-04-14T18:26:10.416Z,64.47
2018-04-14T18:28:03.266Z,61.85
2018-04-14T18:29:03.126Z,60.90
2018-04-14T18:30:56.001Z,59.56
2018-04-14T18:31:55.898Z,59.27
2018-04-14T18:33:48.717Z,57.17
2018-04-14T18:34:48.619Z,57.17
2018-04-14T18:36:41.931Z,55.54
2018-04-14T18:37:41.786Z,55.54
2018-04-14T18:39:34.683Z,54.97
2018-04-14T18:40:34.532Z,52.10
2018-04-14T18:42:27.288Z,51.12
2018-04-14T18:43:27.183Z,50.45
2018-04-14T18:45:20.017Z,49.69
2018-04-14T18:46:19.972Z,47.30
2018-04-14T18:48:12.689Z,46.34
2018-04-14T18:49:12.579Z,45.39
2018-04-14T18:51:05.316Z,44.02
2018-04-14T18:52:05.240Z,42.79
2018-04-14T18:53:58.731Z,44.34
2018-04-14T18:54:58.588Z,42.50
2018-04-14T18:56:51.445Z,40.69
2018-04-14T18:57:51.343Z,39.44
2018-04-14T18:59:44.092Z,37.82
2018-04-14T19:00:43.988Z,36.58
2018-04-14T19:02:36.840Z,35.05
2018-04-14T19:03:36.636Z,34.75
2018-04-14T19:05:29.489Z,32.74
2018-04-14T19:06:29.392Z,32.84
2018-04-14T19:08:22.119Z,31.12
2018-04-14T19:09:22.029Z,31.02
2018-04-14T19:11:14.788Z,31.02
2018-04-14T19:12:14.674Z,31.98
2018-04-14T19:14:07.413Z,33.03
2018-04-14T19:15:07.337Z,31.50
2018-04-14T19:17:00.170Z,29.40
2018-04-14T19:18:00.077Z,29.02
2018-04-14T19:19:52.841Z,29.88
2018-04-14T19:20:52.728Z,29.21
2018-04-14T19:22:45.598Z,29.97
2018-04-14T19:23:45.490Z,30.26
2018-04-14T19:25:38.241Z,30.16
2018-04-14T19:26:38.119Z,29.59
2018-04-14T19:28:30.894Z,27.78
2018-04-14T19:29:30.760Z,27.39
2018-04-14T19:31:24.031Z,26.14
2018-04-14T19:32:23.940Z,25.47
2018-04-14T19:34:17.214Z,24.90
2018-04-14T19:35:17.079Z,24.80
2018-04-14T19:37:09.924Z,24.80
2018-04-14T19:38:09.839Z,23.57
2018-04-14T19:40:02.696Z,21.84
2018-04-14T19:41:02.585Z,21.94
2018-04-14T19:42:56.337Z,21.94
2018-04-14T19:43:55.338Z,21.75
2018-04-14T19:45:48.216Z,19.37
2018-04-14T19:46:48.076Z,19.37
2018-04-14T19:48:42.562Z,19.37
2018-04-14T19:49:42.479Z,20.61
2018-04-14T19:51:35.263Z,19.46
2018-04-14T19:52:35.145Z,18.89
2018-04-14T19:54:27.878Z,17.93
2018-04-14T19:55:27.764Z,16.50
2018-04-14T19:57:20.649Z,15.93
2018-04-14T19:58:20.430Z,16.12
2018-04-14T20:00:13.260Z,15.93
2018-04-14T20:01:13.157Z,16.12
2018-04-14T20:03:05.928Z,16.97
2018-04-14T20:04:05.824Z,17.07
2018-04-14T20:05:58.652Z,16.78
2018-04-14T20:06:58.612Z,16.21
2018-04-14T20:08:51.320Z,16.78
2018-04-14T20:09:51.200Z,15.16
2018-04-14T20:11:43.955Z,15.16
2018-04-14T20:12:43.872Z,13.64
2018-04-14T20:14:36.719Z,12.68
2018-04-14T20:15:38.306Z,11.92
2018-04-14T20:17:29.484Z,12.49
2018-04-14T20:18:29.262Z,12.30
2018-04-14T20:20:22.095Z,12.21
2018-04-14T20:21:21.988Z,12.21
2018-04-14T20:23:14.742Z,11.35
2018-04-14T20:24:14.650Z,10.87
2018-04-14T20:26:07.386Z,10.68
2018-04-14T20:27:07.292Z,10.30
2018-04-14T20:29:01.305Z,8.96
2018-04-14T20:30:01.465Z,9.72
2018-04-14T20:31:52.826Z,9.63
2018-04-14T20:32:52.697Z,9.06
2018-04-14T20:34:45.567Z,8.48
2018-04-14T20:35:45.442Z,8.77
2018-04-14T20:37:38.202Z,8.11
2018-04-14T20:38:38.092Z,7.81
2018-04-14T20:40:30.937Z,8.58
2018-04-14T20:41:30.862Z,8.10
2018-04-14T20:43:23.715Z,5.82
2018-04-14T20:44:23.493Z,6.48
2018-04-14T20:46:16.331Z,5.62
2018-04-14T20:47:16.133Z,5.15
2018-04-14T20:49:08.990Z,5.24
2018-04-14T20:50:08.898Z,4.28
2018-04-14T20:52:01.734Z,2.57
2018-04-14T20:53:01.645Z,2.00
2018-04-14T20:54:54.498Z,2.19
2018-04-14T20:55:54.372Z,2.19
2018-04-14T20:57:47.125Z,1.72
2018-04-14T20:58:47.026Z,1.33
2018-04-14T21:00:40.300Z,0.67
2018-04-14T21:01:40.190Z,0.67
2018-04-14T21:03:33.028Z,0.76
2018-04-14T21:04:32.931Z,1.04
2018-04-14T21:06:25.698Z,2.09
2018-04-14T21:07:25.584Z,2.86
2018-04-14T21:09:18.349Z,1.90
2018-04-14T21:10:18.226Z,2.00
2018-04-14T21:12:11.583Z,2.09
2018-04-14T21:13:10.867Z,2.09
2018-04-14T21:15:04.149Z,2.57
2018-04-14T21:16:04.052Z,2.76
2018-04-14T21:17:57.297Z,3.43
2018-04-14T21:18:57.263Z,3.62
2018-04-14T21:20:50.040Z,4.96
2018-04-14T21:21:49.936Z,4.29
2018-04-14T21:23:42.820Z,2.67
2018-04-14T21:24:42.708Z,2.67
2018-04-14T21:26:35.612Z,2.09
2018-04-14T21:27:35.343Z,1.62
2018-04-14T21:29:28.078Z,1.90
2018-04-14T21:30:28.002Z,2.19
2018-04-14T21:32:20.809Z,2.95
2018-04-14T21:33:20.628Z,2.67
2018-04-14T21:35:13.390Z,2.86
2018-04-14T21:36:13.301Z,1.52
2018-04-14T21:38:06.054Z,1.90
2018-04-14T21:39:05.927Z,2.19
2018-04-14T21:40:58.689Z,1.43
2018-04-14T21:41:58.588Z,2.19
2018-04-14T21:43:51.441Z,2.48
2018-04-14T21:44:51.322Z,0.67
2018-04-14T21:46:44.065Z,0.00
2018-04-14T21:47:43.970Z,0.00
2018-04-14T21:49:36.730Z,0.00
2018-04-14T21:50:36.623Z,0.00
2018-04-14T21:52:29.460Z,0.00
2018-04-14T21:53:29.366Z,0.00
2018-04-14T21:55:22.155Z,0.00
2018-04-14T21:56:22.017Z,0.00
2018-04-14T21:58:14.785Z,0.00
2018-04-14T21:59:14.653Z,0.00
2018-04-14T22:01:07.416Z,0.00
2018-04-14T22:02:07.359Z,0.00
2018-04-14T22:04:00.070Z,0.00
2018-04-14T22:04:59.950Z,0.00
2018-04-14T22:06:52.944Z,0.00
2018-04-14T22:07:52.856Z,0.00
2018-04-14T22:09:45.648Z,0.00
2018-04-14T22:10:45.554Z,0.00
2018-04-14T22:12:38.458Z,0.00
2018-04-14T22:13:38.301Z,0.00
2018-04-14T22:15:31.659Z,0.00
2018-04-14T22:16:30.951Z,0.00
2018-04-14T22:18:23.737Z,0.00
2018-04-14T22:19:23.601Z,0.00
2018-04-14T22:21:16.455Z,0.00
2018-04-14T22:22:16.245Z,0.00
2018-04-14T22:24:09.025Z,0.00
2018-04-14T22:25:08.900Z,0.00
2018-04-14T22:27:03.165Z,0.00
2018-04-14T22:28:03.078Z,0.00
2018-04-14T22:29:55.834Z,0.00
2018-04-14T22:30:55.772Z,0.00
2018-04-14T22:32:48.477Z,0.00
2018-04-14T22:33:48.375Z,0.00
2018-04-14T22:35:41.121Z,0.00
2018-04-14T22:36:41.017Z,0.00
2018-04-14T22:38:33.862Z,0.00
2018-04-14T22:39:33.766Z,0.00
2018-04-14T22:41:26.533Z,0.00
2018-04-14T22:42:26.431Z,0.00
2018-04-14T22:44:21.847Z,0.00
2018-04-14T22:45:20.595Z,0.00
2018-04-14T22:47:13.353Z,0.00
2018-04-14T22:48:13.267Z,0.00
2018-04-14T22:50:06.017Z,0.00
2018-04-14T22:51:05.901Z,0.00
2018-04-14T22:52:58.765Z,0.00
2018-04-14T22:53:58.645Z,0.00
2018-04-14T22:55:51.392Z,0.00
2018-04-14T22:56:51.295Z,0.00
2018-04-14T22:58:44.044Z,0.00
2018-04-14T22:59:43.932Z,0.00
2018-04-14T23:01:36.703Z,0.00
2018-04-14T23:02:36.582Z,0.00
2018-04-14T23:04:29.422Z,0.00
2018-04-14T23:05:29.335Z,0.00
2018-04-14T23:07:22.113Z,0.00
2018-04-14T23:08:21.994Z,0.00
2018-04-14T23:10:19.762Z,0.00
2018-04-14T23:11:19.641Z,0.00
2018-04-14T23:13:12.504Z,0.00
2018-04-14T23:14:12.389Z,0.00
2018-04-14T23:16:05.136Z,0.00
2018-04-14T23:17:05.048Z,0.00
2018-04-14T23:18:57.892Z,0.00
2018-04-14T23:19:57.789Z,0.00
2018-04-14T23:21:50.541Z,0.00
2018-04-14T23:22:50.431Z,0.00
2018-04-14T23:24:43.317Z,0.00
2018-04-14T23:25:43.177Z,0.00
2018-04-14T23:27:35.935Z,0.00
2018-04-14T23:28:35.869Z,0.00
2018-04-14T23:30:28.714Z,0.00
2018-04-14T23:31:28.583Z,0.00
2018-04-14T23:33:21.437Z,0.00
2018-04-14T23:34:21.339Z,0.00
2018-04-14T23:36:14.598Z,0.00
2018-04-14T23:37:14.487Z,0.00
2018-04-14T23:39:07.263Z,0.00
2018-04-14T23:40:07.134Z,0.00
2018-04-14T23:41:59.923Z,0.00
2018-04-14T23:42:59.794Z,0.00
2018-04-14T23:44:53.053Z,0.00
2018-04-14T23:45:52.944Z,0.00
2018-04-14T23:47:45.714Z,0.00
2018-04-14T23:48:45.603Z,0.00
2018-04-14T23:50:38.345Z,0.00
2018-04-14T23:51:38.255Z,0.00
2018-04-14T23:53:31.092Z,0.00
2018-04-14T23:54:30.984Z,0.00
2018-04-14T23:56:23.841Z,0.00
2018-04-14T23:57:23.736Z,0.00
2018-04-14T23:59:16.595Z,0.00
